createdAt,value
2017-09-30T00:00:26.756Z,61.3
2017-09-30T00:01:28.441Z,62.3
2017-09-30T00:02:30.144Z,61.6
2017-09-30T00:03:31.845Z,61.9
2017-09-30T00:04:33.531Z,61.5
2017-09-30T00:05:35.219Z,61.5
2017-09-30T00:06:36.948Z,61.8
2017-09-30T00:07:38.665Z,62.2
2017-09-30T00:08:40.460Z,61.4
2017-09-30T00:09:42.189Z,61.8
2017-09-30T00:10:43.912Z,61.6
2017-09-30T00:11:45.663Z,61.9
2017-09-30T00:12:47.403Z,61.3
2017-09-30T00:13:49.180Z,61.2
2017-09-30T00:14:50.972Z,61.2
2017-09-30T00:15:52.724Z,61.2
2017-09-30T00:16:54.472Z,61.2
2017-09-30T00:17:56.192Z,61.9
2017-09-30T00:18:57.961Z,61.4
2017-09-30T00:19:59.718Z,62.0
2017-09-30T00:21:01.515Z,62.0
2017-09-30T00:22:03.361Z,62.5
2017-09-30T00:23:05.122Z,62.7
2017-09-30T00:24:06.898Z,62.7
2017-09-30T00:25:08.630Z,62.8
2017-09-30T00:26:13.201Z,63.3
2017-09-30T00:27:14.943Z,63.6
2017-09-30T00:28:20.121Z,63.6
2017-09-30T00:29:21.833Z,64.0
2017-09-30T00:30:23.614Z,64.4
2017-09-30T00:31:25.363Z,64.2
2017-09-30T00:32:27.076Z,64.3
2017-09-30T00:33:28.844Z,64.4
2017-09-30T00:34:30.624Z,64.8
2017-09-30T00:35:32.450Z,65.3
2017-09-30T00:36:34.163Z,65.0
2017-09-30T00:37:35.951Z,65.0
2017-09-30T00:38:37.676Z,65.2
2017-09-30T00:39:39.451Z,65.2
2017-09-30T00:40:41.273Z,65.0
2017-09-30T00:41:43.005Z,64.9
2017-09-30T00:42:44.716Z,65.0
2017-09-30T00:43:46.477Z,64.9
2017-09-30T00:44:48.211Z,65.9
2017-09-30T00:45:49.962Z,66.1
2017-09-30T00:46:51.702Z,66.0
2017-09-30T00:47:53.414Z,66.0
2017-09-30T00:48:55.165Z,66.2
2017-09-30T00:49:56.914Z,65.7
2017-09-30T00:50:58.686Z,66.4
2017-09-30T00:52:00.443Z,66.6
2017-09-30T00:53:02.257Z,66.3
2017-09-30T00:54:04.009Z,66.1
2017-09-30T00:55:05.846Z,65.7
2017-09-30T00:56:07.546Z,65.7
2017-09-30T00:57:09.227Z,65.7
2017-09-30T00:58:10.965Z,65.3
2017-09-30T00:59:12.659Z,65.9
2017-09-30T01:00:16.131Z,66.0
2017-09-30T01:01:17.946Z,65.5
2017-09-30T01:02:19.681Z,65.7
2017-09-30T01:03:21.441Z,65.6
2017-09-30T01:04:23.210Z,66.2
2017-09-30T01:05:24.981Z,66.5
2017-09-30T01:06:26.689Z,66.6
2017-09-30T01:07:28.422Z,67.0
2017-09-30T01:08:30.209Z,67.3
2017-09-30T01:09:31.946Z,67.3
2017-09-30T01:10:33.686Z,67.2
2017-09-30T01:11:35.421Z,67.3
2017-09-30T01:12:37.152Z,67.1
2017-09-30T01:13:38.944Z,67.9
2017-09-30T01:14:40.761Z,67.4
2017-09-30T01:15:42.529Z,67.7
2017-09-30T01:16:44.300Z,67.4
2017-09-30T01:17:46.030Z,67.9
2017-09-30T01:18:47.947Z,68.4
2017-09-30T01:19:49.730Z,68.2
2017-09-30T01:20:51.461Z,68.3
2017-09-30T01:21:53.163Z,68.0
2017-09-30T01:22:54.905Z,68.2
2017-09-30T01:23:56.683Z,68.9
2017-09-30T01:24:58.439Z,68.4
2017-09-30T01:26:00.240Z,68.9
2017-09-30T01:27:01.997Z,68.9
2017-09-30T01:28:03.843Z,69.4
2017-09-30T01:29:05.627Z,68.7
2017-09-30T01:30:07.375Z,68.9
2017-09-30T01:31:09.065Z,69.0
2017-09-30T01:32:10.804Z,69.2
2017-09-30T01:33:12.555Z,69.1
2017-09-30T01:34:14.405Z,69.5
2017-09-30T01:35:16.141Z,69.7
2017-09-30T01:36:17.954Z,69.4
2017-09-30T01:37:19.731Z,69.7
2017-09-30T01:38:21.455Z,69.1
2017-09-30T01:39:23.212Z,69.3
2017-09-30T01:40:24.955Z,69.1
2017-09-30T01:41:26.728Z,69.1
2017-09-30T01:42:28.482Z,69.8
2017-09-30T01:43:30.248Z,69.8
2017-09-30T01:44:32.004Z,69.8
2017-09-30T01:45:33.819Z,69.8
2017-09-30T01:46:35.563Z,70.2
2017-09-30T01:47:37.348Z,70.3
2017-09-30T01:48:39.133Z,70.3
2017-09-30T01:49:40.933Z,70.3
2017-09-30T01:50:42.694Z,69.9
2017-09-30T01:51:44.449Z,69.8
2017-09-30T01:52:46.198Z,70.3
2017-09-30T01:53:47.946Z,69.8
2017-09-30T01:54:49.740Z,69.6
2017-09-30T02:01:37.643Z,69.0
2017-09-30T02:02:38.795Z,69.7
2017-09-30T02:03:40.459Z,69.8
2017-09-30T02:04:42.116Z,69.8
2017-09-30T02:05:43.785Z,69.9
2017-09-30T02:06:45.449Z,70.3
2017-09-30T02:07:47.142Z,70.2
2017-09-30T02:08:48.824Z,70.6
2017-09-30T02:09:50.511Z,70.8
2017-09-30T02:10:52.211Z,71.0
2017-09-30T02:11:53.914Z,70.1
2017-09-30T02:12:55.663Z,70.0
2017-09-30T02:13:58.414Z,70.4
2017-09-30T02:15:00.209Z,70.4
2017-09-30T02:16:01.966Z,70.2
2017-09-30T02:17:03.734Z,69.8
2017-09-30T02:18:05.561Z,70.3
2017-09-30T02:19:07.352Z,70.3
2017-09-30T02:20:09.136Z,70.3
2017-09-30T02:21:13.922Z,70.2
2017-09-30T02:22:15.612Z,70.2
2017-09-30T02:23:20.158Z,70.0
2017-09-30T02:24:21.867Z,70.3
2017-09-30T02:25:23.668Z,70.0
2017-09-30T02:26:25.424Z,70.6
2017-09-30T02:27:27.221Z,70.4
2017-09-30T02:28:29.019Z,71.3
2017-09-30T02:29:30.803Z,71.0
2017-09-30T02:30:32.577Z,71.1
2017-09-30T02:31:36.205Z,71.0
2017-09-30T02:32:37.954Z,71.0
2017-09-30T02:33:39.676Z,71.3
2017-09-30T02:34:42.068Z,71.3
2017-09-30T02:35:45.032Z,71.0
2017-09-30T02:36:46.790Z,70.8
2017-09-30T02:37:48.567Z,70.9
2017-09-30T02:38:50.393Z,70.5
2017-09-30T02:39:53.425Z,70.4
2017-09-30T02:40:55.250Z,70.9
2017-09-30T02:41:57.003Z,70.4
2017-09-30T02:42:58.738Z,69.9
2017-09-30T02:44:00.525Z,70.4
2017-09-30T02:45:02.279Z,69.7
2017-09-30T02:46:04.063Z,70.3
2017-09-30T02:47:05.865Z,69.8
2017-09-30T02:48:07.665Z,69.8
2017-09-30T02:49:10.574Z,70.3
2017-09-30T02:50:12.263Z,70.1
2017-09-30T02:51:14.077Z,69.6
2017-09-30T02:52:15.853Z,69.9
2017-09-30T02:53:17.731Z,70.2
2017-09-30T02:54:20.583Z,70.3
2017-09-30T02:55:22.556Z,70.4
2017-09-30T02:56:24.341Z,70.4
2017-09-30T02:57:26.102Z,70.6
2017-09-30T02:58:27.927Z,70.1
2017-09-30T02:59:29.683Z,70.0
2017-09-30T03:00:31.444Z,69.9
2017-09-30T03:01:33.309Z,70.4
2017-09-30T03:02:35.055Z,70.8
2017-09-30T03:03:36.973Z,70.7
2017-09-30T03:04:38.830Z,71.2
2017-09-30T03:05:40.682Z,71.6
2017-09-30T03:06:42.600Z,72.1
2017-09-30T03:07:44.456Z,71.6
2017-09-30T03:08:46.961Z,71.6
2017-09-30T03:09:51.328Z,71.9
2017-09-30T03:10:53.121Z,71.6
2017-09-30T03:11:54.899Z,71.4
2017-09-30T03:12:56.647Z,71.2
2017-09-30T03:13:58.414Z,71.8
2017-09-30T03:15:00.199Z,72.1
2017-09-30T03:16:01.965Z,71.9
2017-09-30T03:17:03.710Z,71.6
2017-09-30T03:18:05.405Z,71.5
2017-09-30T03:19:07.260Z,71.4
2017-09-30T03:20:09.132Z,71.9
2017-09-30T03:21:10.920Z,71.4
2017-09-30T03:22:12.726Z,72.0
2017-09-30T03:23:14.563Z,71.7
2017-09-30T03:24:16.435Z,71.7
2017-09-30T03:25:18.307Z,71.8
2017-09-30T03:26:20.179Z,72.0
2017-09-30T03:27:22.024Z,71.5
2017-09-30T03:28:23.905Z,71.7
2017-09-30T03:29:25.795Z,71.4
2017-09-30T03:30:27.658Z,71.9
2017-09-30T03:31:29.536Z,71.9
2017-09-30T03:32:31.396Z,71.9
2017-09-30T03:33:33.288Z,71.6
2017-09-30T03:34:35.253Z,71.7
2017-09-30T03:35:37.132Z,71.7
2017-09-30T03:36:39.024Z,71.6
2017-09-30T03:37:40.849Z,71.9
2017-09-30T03:38:42.710Z,71.9
2017-09-30T03:39:44.588Z,71.7
2017-09-30T03:40:46.477Z,71.7
2017-09-30T03:41:48.359Z,71.3
2017-09-30T03:42:50.275Z,71.7
2017-09-30T03:43:52.182Z,71.6
2017-09-30T03:44:54.078Z,71.4
2017-09-30T03:45:55.998Z,71.5
2017-09-30T03:46:57.972Z,71.0
2017-09-30T03:47:59.818Z,71.5
2017-09-30T03:49:01.715Z,70.9
2017-09-30T03:50:03.674Z,71.2
2017-09-30T03:51:05.631Z,71.1
2017-09-30T03:52:07.501Z,71.1
2017-09-30T03:53:09.353Z,71.1
2017-09-30T03:54:11.235Z,70.9
2017-09-30T03:55:13.127Z,71.3
2017-09-30T03:56:14.968Z,70.7
2017-09-30T03:57:16.757Z,70.8
2017-09-30T03:58:18.546Z,70.2
2017-09-30T03:59:20.335Z,70.2
2017-09-30T04:00:22.142Z,70.3
2017-09-30T04:01:23.955Z,70.3
2017-09-30T04:02:25.710Z,70.0
2017-09-30T04:03:27.479Z,70.2
2017-09-30T04:04:29.390Z,70.3
2017-09-30T04:05:31.271Z,69.8
2017-09-30T04:06:33.133Z,69.5
2017-09-30T04:07:35.054Z,70.1
2017-09-30T04:08:36.983Z,69.7
2017-09-30T04:09:38.920Z,69.8
2017-09-30T04:10:40.809Z,69.8
2017-09-30T04:11:42.737Z,69.8
2017-09-30T04:12:44.661Z,69.7
2017-09-30T04:13:46.546Z,69.7
2017-09-30T04:14:48.362Z,69.8
2017-09-30T04:15:50.280Z,69.8
2017-09-30T04:16:52.205Z,69.2
2017-09-30T04:17:54.449Z,69.5
2017-09-30T04:18:56.466Z,69.1
2017-09-30T04:19:58.406Z,68.8
2017-09-30T04:21:00.562Z,68.8
2017-09-30T04:22:02.974Z,68.6
2017-09-30T04:23:05.066Z,69.0
2017-09-30T04:24:07.713Z,68.4
2017-09-30T04:25:09.999Z,68.0
2017-09-30T04:26:11.958Z,68.6
2017-09-30T04:27:13.943Z,67.8
2017-09-30T04:28:15.852Z,67.7
2017-09-30T04:29:18.167Z,67.5
2017-09-30T04:30:20.372Z,67.3
2017-09-30T04:31:22.665Z,67.0
2017-09-30T04:32:24.888Z,66.9
2017-09-30T04:33:26.860Z,66.5
2017-09-30T04:34:28.870Z,66.7
2017-09-30T04:35:31.038Z,66.5
2017-09-30T04:36:33.023Z,66.3
2017-09-30T04:37:34.938Z,66.3
2017-09-30T04:38:36.882Z,66.5
2017-09-30T04:39:38.822Z,66.5
2017-09-30T04:40:40.806Z,66.6
2017-09-30T04:41:42.850Z,66.4
2017-09-30T04:42:44.947Z,66.4
2017-09-30T04:43:46.961Z,66.2
2017-09-30T04:44:48.931Z,66.3
2017-09-30T04:45:50.905Z,66.4
2017-09-30T04:46:52.967Z,66.4
2017-09-30T04:47:54.958Z,66.4
2017-09-30T04:48:56.989Z,66.2
2017-09-30T04:49:58.878Z,66.6
2017-09-30T04:51:00.862Z,66.3
2017-09-30T04:52:02.865Z,66.3
2017-09-30T04:53:04.837Z,65.8
2017-09-30T04:54:06.671Z,66.0
2017-09-30T04:55:08.534Z,66.0
2017-09-30T04:56:10.327Z,66.1
2017-09-30T04:57:12.193Z,66.1
2017-09-30T04:58:13.954Z,66.3
2017-09-30T04:59:15.701Z,65.9
2017-09-30T05:00:17.439Z,66.0
2017-09-30T05:01:19.229Z,66.2
2017-09-30T05:02:21.068Z,65.8
2017-09-30T05:03:22.847Z,66.7
2017-09-30T05:04:24.620Z,66.6
2017-09-30T05:05:26.404Z,66.4
2017-09-30T05:06:28.158Z,66.5
2017-09-30T05:07:29.950Z,66.6
2017-09-30T05:08:31.712Z,66.5
2017-09-30T05:09:33.443Z,66.0
2017-09-30T05:10:35.200Z,67.1
2017-09-30T05:11:36.978Z,67.0
2017-09-30T05:12:38.771Z,67.4
2017-09-30T05:13:40.594Z,66.9
2017-09-30T05:14:42.367Z,66.9
2017-09-30T05:15:44.147Z,67.3
2017-09-30T05:16:45.934Z,66.9
2017-09-30T05:17:47.749Z,67.4
2017-09-30T05:18:49.482Z,67.3
2017-09-30T05:19:51.265Z,67.6
2017-09-30T05:20:53.030Z,67.9
2017-09-30T05:21:54.807Z,68.5
2017-09-30T05:22:56.580Z,68.4
2017-09-30T05:23:58.333Z,68.2
2017-09-30T05:25:00.110Z,67.9
2017-09-30T05:26:01.905Z,68.2
2017-09-30T05:27:03.669Z,68.3
2017-09-30T05:28:05.455Z,68.6
2017-09-30T05:29:07.229Z,68.5
2017-09-30T05:30:09.002Z,68.9
2017-09-30T05:31:10.780Z,68.6
2017-09-30T05:32:12.565Z,68.9
2017-09-30T05:33:14.314Z,68.9
2017-09-30T05:34:16.089Z,68.7
2017-09-30T05:35:17.918Z,68.8
2017-09-30T05:36:19.690Z,69.2
2017-09-30T05:37:21.478Z,68.8
2017-09-30T05:38:23.239Z,68.8
2017-09-30T05:39:24.996Z,68.7
2017-09-30T05:40:26.784Z,68.9
2017-09-30T05:41:28.529Z,68.7
2017-09-30T05:42:30.331Z,68.8
2017-09-30T05:43:32.127Z,68.9
2017-09-30T05:44:33.925Z,68.4
2017-09-30T05:45:35.713Z,69.1
2017-09-30T05:46:37.552Z,68.6
2017-09-30T05:47:39.313Z,68.6
2017-09-30T05:48:41.125Z,68.5
2017-09-30T05:49:42.908Z,68.6
2017-09-30T05:50:44.661Z,68.3
2017-09-30T05:51:46.406Z,68.3
2017-09-30T05:52:48.218Z,68.2
2017-09-30T05:53:49.961Z,68.3
2017-09-30T05:54:51.734Z,68.3
2017-09-30T06:01:11.336Z,67.7
2017-09-30T06:02:12.983Z,67.5
2017-09-30T06:03:14.668Z,67.4
2017-09-30T06:04:16.340Z,67.0
2017-09-30T06:05:18.003Z,67.4
2017-09-30T06:06:19.690Z,67.5
2017-09-30T06:07:21.350Z,67.6
2017-09-30T06:08:23.021Z,67.1
2017-09-30T06:09:24.700Z,66.6
2017-09-30T06:10:26.365Z,65.1
2017-09-30T06:11:28.030Z,65.0
2017-09-30T06:12:29.689Z,64.5
2017-09-30T06:13:31.353Z,63.8
2017-09-30T06:14:33.026Z,63.7
2017-09-30T06:15:34.682Z,63.3
2017-09-30T06:16:36.375Z,63.3
2017-09-30T06:17:38.037Z,63.0
2017-09-30T06:18:39.683Z,63.4
2017-09-30T06:19:41.353Z,62.8
2017-09-30T06:20:43.047Z,61.8
2017-09-30T06:21:44.716Z,60.7
2017-09-30T06:22:46.371Z,59.5
2017-09-30T06:23:48.037Z,58.5
2017-09-30T06:24:49.700Z,58.3
2017-09-30T06:25:51.400Z,56.9
2017-09-30T06:26:53.111Z,55.4
2017-09-30T06:27:54.854Z,54.3
2017-09-30T06:28:56.534Z,54.4
2017-09-30T06:29:58.282Z,54.3
2017-09-30T06:31:00.076Z,54.5
2017-09-30T06:32:01.821Z,54.3
2017-09-30T06:33:03.558Z,53.3
2017-09-30T06:34:05.366Z,51.8
2017-09-30T06:35:07.126Z,50.9
2017-09-30T06:36:08.869Z,49.6
2017-09-30T06:37:10.604Z,50.3
2017-09-30T06:38:12.362Z,50.6
2017-09-30T06:39:14.186Z,51.5
2017-09-30T06:40:15.965Z,50.8
2017-09-30T06:41:17.745Z,50.0
2017-09-30T06:42:19.549Z,48.8
2017-09-30T06:43:21.359Z,49.1
2017-09-30T06:44:23.114Z,48.2
2017-09-30T06:45:24.990Z,49.0
2017-09-30T06:46:26.805Z,49.8
2017-09-30T06:47:28.635Z,49.7
2017-09-30T06:48:30.424Z,47.8
2017-09-30T06:49:32.195Z,47.8
2017-09-30T06:50:34.022Z,48.1
2017-09-30T06:51:35.809Z,48.4
2017-09-30T06:52:37.586Z,48.7
2017-09-30T06:53:39.408Z,47.8
2017-09-30T06:54:41.181Z,47.2
2017-09-30T06:55:42.994Z,47.1
2017-09-30T06:56:44.836Z,47.6
2017-09-30T06:57:46.664Z,47.5
2017-09-30T06:58:48.452Z,47.6
2017-09-30T06:59:50.247Z,49.6
2017-09-30T07:00:52.137Z,46.9
2017-09-30T07:01:53.896Z,50.5
2017-09-30T07:02:55.706Z,46.9
2017-09-30T07:03:57.499Z,47.2
2017-09-30T07:04:59.262Z,48.1
2017-09-30T07:06:01.021Z,47.9
2017-09-30T07:07:03.389Z,47.6
2017-09-30T07:08:05.136Z,50.0
2017-09-30T07:09:13.846Z,48.7
2017-09-30T07:10:16.741Z,47.2
2017-09-30T07:11:18.540Z,46.9
2017-09-30T07:12:21.261Z,48.2
2017-09-30T07:13:23.623Z,48.7
2017-09-30T07:14:25.543Z,55.2
2017-09-30T07:15:27.299Z,53.8
2017-09-30T07:16:29.082Z,50.5
2017-09-30T07:17:30.853Z,49.1
2017-09-30T07:18:43.784Z,47.8
2017-09-30T07:19:45.492Z,49.8
2017-09-30T07:20:47.319Z,49.0
2017-09-30T07:21:49.112Z,48.4
2017-09-30T07:22:51.261Z,51.9
2017-09-30T07:23:53.105Z,49.3
2017-09-30T07:24:55.902Z,49.6
2017-09-30T07:25:57.674Z,48.5
2017-09-30T07:26:59.891Z,49.7
2017-09-30T07:28:01.702Z,53.1
2017-09-30T07:29:04.191Z,55.6
2017-09-30T07:30:05.932Z,53.4
2017-09-30T07:31:07.745Z,56.7
2017-09-30T07:32:09.514Z,56.6
2017-09-30T07:33:11.302Z,56.1
2017-09-30T07:34:13.098Z,57.6
2017-09-30T07:35:14.897Z,55.4
2017-09-30T07:36:16.764Z,53.2
2017-09-30T07:37:18.552Z,52.2
2017-09-30T07:38:20.369Z,51.3
2017-09-30T07:39:22.186Z,58.1
2017-09-30T07:40:23.970Z,51.9
2017-09-30T07:41:25.695Z,51.0
2017-09-30T07:42:27.469Z,52.3
2017-09-30T07:43:29.213Z,56.6
2017-09-30T07:44:30.891Z,58.4
2017-09-30T07:45:32.609Z,61.7
2017-09-30T07:46:34.294Z,53.7
2017-09-30T07:47:35.986Z,54.4
2017-09-30T07:48:37.688Z,53.9
2017-09-30T07:49:39.418Z,56.2
2017-09-30T07:50:41.148Z,54.4
2017-09-30T07:51:42.830Z,55.7
2017-09-30T07:52:44.937Z,58.1
2017-09-30T07:53:46.639Z,62.2
2017-09-30T07:54:48.401Z,60.2
2017-09-30T07:55:50.096Z,58.5
2017-09-30T07:56:51.815Z,58.1
2017-09-30T07:57:53.582Z,57.9
2017-09-30T07:58:55.318Z,61.3
2017-09-30T07:59:57.316Z,62.3
2017-09-30T08:00:59.087Z,62.6
2017-09-30T08:02:00.798Z,61.6
2017-09-30T08:03:02.539Z,63.4
2017-09-30T08:04:04.251Z,64.2
2017-09-30T08:05:05.928Z,63.5
2017-09-30T08:06:07.714Z,61.4
2017-09-30T08:07:09.470Z,64.9
2017-09-30T08:08:11.148Z,64.4
2017-09-30T08:09:12.887Z,64.8
2017-09-30T08:10:14.567Z,68.8
2017-09-30T08:11:16.262Z,68.8
2017-09-30T08:12:18.018Z,66.1
2017-09-30T08:13:19.691Z,66.4
2017-09-30T08:14:21.367Z,66.2
2017-09-30T08:15:23.077Z,67.6
2017-09-30T08:16:24.787Z,67.5
2017-09-30T08:17:26.454Z,67.7
2017-09-30T08:18:28.174Z,70.0
2017-09-30T08:19:29.843Z,68.1
2017-09-30T08:20:31.546Z,68.6
2017-09-30T08:21:33.412Z,71.9
2017-09-30T08:22:35.127Z,69.4
2017-09-30T08:23:36.822Z,69.2
2017-09-30T08:24:38.579Z,67.2
2017-09-30T08:25:40.286Z,67.7
2017-09-30T08:26:41.993Z,69.0
2017-09-30T08:27:43.669Z,69.1
2017-09-30T08:28:45.357Z,67.9
2017-09-30T08:29:47.060Z,69.8
2017-09-30T08:30:48.746Z,69.5
2017-09-30T08:31:50.423Z,71.1
2017-09-30T08:32:52.108Z,71.1
2017-09-30T08:33:53.770Z,70.3
2017-09-30T08:34:55.443Z,70.8
2017-09-30T08:35:57.144Z,69.5
2017-09-30T08:36:58.858Z,69.4
2017-09-30T08:38:00.523Z,70.9
2017-09-30T08:39:02.229Z,71.4
2017-09-30T08:40:03.911Z,71.5
2017-09-30T08:41:05.603Z,73.9
2017-09-30T08:42:07.300Z,73.1
2017-09-30T08:43:08.980Z,74.5
2017-09-30T08:44:10.657Z,74.2
2017-09-30T08:45:12.333Z,74.9
2017-09-30T08:46:14.075Z,75.0
2017-09-30T08:47:15.808Z,76.2
2017-09-30T08:48:17.530Z,76.1
2017-09-30T08:49:19.273Z,75.2
2017-09-30T08:50:20.986Z,78.5
2017-09-30T08:51:22.741Z,77.7
2017-09-30T08:52:24.462Z,77.5
2017-09-30T08:53:26.264Z,79.0
2017-09-30T08:54:28.167Z,72.7
2017-09-30T08:55:29.885Z,72.2
2017-09-30T08:56:31.641Z,72.0
2017-09-30T08:57:33.366Z,71.0
2017-09-30T08:58:35.261Z,71.1
2017-09-30T08:59:36.999Z,73.3
2017-09-30T09:00:38.742Z,70.6
2017-09-30T09:01:40.488Z,70.7
2017-09-30T09:02:42.207Z,71.7
2017-09-30T09:03:43.897Z,71.4
2017-09-30T09:04:45.575Z,74.0
2017-09-30T09:05:47.239Z,74.0
2017-09-30T09:06:48.908Z,72.4
2017-09-30T09:07:50.576Z,72.2
2017-09-30T09:08:52.255Z,72.3
2017-09-30T09:09:53.997Z,70.5
2017-09-30T09:10:55.668Z,70.4
2017-09-30T09:11:57.322Z,71.6
2017-09-30T09:12:59.003Z,70.4
2017-09-30T09:14:00.677Z,70.9
2017-09-30T09:15:02.339Z,70.1
2017-09-30T09:16:04.022Z,67.7
2017-09-30T09:17:05.737Z,67.0
2017-09-30T09:18:07.424Z,67.5
2017-09-30T09:19:09.166Z,66.5
2017-09-30T09:20:10.825Z,68.7
2017-09-30T09:21:12.492Z,67.5
2017-09-30T09:22:14.164Z,67.5
2017-09-30T09:23:15.835Z,66.5
2017-09-30T09:24:17.509Z,67.8
2017-09-30T09:25:19.179Z,70.0
2017-09-30T09:26:20.851Z,69.2
2017-09-30T09:27:22.519Z,69.1
2017-09-30T09:28:24.192Z,69.5
2017-09-30T09:29:25.872Z,70.3
2017-09-30T09:30:27.580Z,71.7
2017-09-30T09:31:29.270Z,70.2
2017-09-30T09:32:30.978Z,70.6
2017-09-30T09:33:32.643Z,68.5
2017-09-30T09:34:34.325Z,69.7
2017-09-30T09:35:35.994Z,71.0
2017-09-30T09:36:37.658Z,70.6
2017-09-30T09:37:39.684Z,70.0
2017-09-30T09:38:41.334Z,70.6
2017-09-30T09:39:43.029Z,71.1
2017-09-30T09:40:44.705Z,72.1
2017-09-30T09:41:46.414Z,73.1
2017-09-30T09:42:48.153Z,74.2
2017-09-30T09:43:49.897Z,81.9
2017-09-30T09:44:51.641Z,80.2
2017-09-30T09:45:53.366Z,82.1
2017-09-30T09:46:55.104Z,84.3
2017-09-30T09:47:56.806Z,85.8
2017-09-30T09:48:58.481Z,88.5
2017-09-30T09:50:00.177Z,92.4
2017-09-30T09:51:01.876Z,90.9
2017-09-30T09:52:03.572Z,89.9
2017-09-30T09:53:05.254Z,88.1
2017-09-30T09:54:06.987Z,87.8
2017-09-30T09:55:08.705Z,90.7
2017-09-30T09:56:10.397Z,89.4
2017-09-30T10:02:00.495Z,93.5
2017-09-30T10:03:02.243Z,94.1
2017-09-30T10:04:03.904Z,92.0
2017-09-30T10:05:05.612Z,93.1
2017-09-30T10:06:07.308Z,91.2
2017-09-30T10:07:08.977Z,92.6
2017-09-30T10:08:10.642Z,93.8
2017-09-30T10:09:12.314Z,93.4
2017-09-30T10:10:13.985Z,92.4
2017-09-30T10:11:15.651Z,95.7
2017-09-30T10:12:17.319Z,96.9
2017-09-30T10:13:18.979Z,97.5
2017-09-30T10:14:20.688Z,98.0
2017-09-30T10:15:22.445Z,99.9
2017-09-30T10:16:24.120Z,100.0
2017-09-30T10:17:25.820Z,100.0
2017-09-30T10:18:27.525Z,100.0
2017-09-30T10:19:29.232Z,100.0
2017-09-30T10:20:30.879Z,100.0
2017-09-30T10:21:32.840Z,100.0
2017-09-30T10:22:34.648Z,100.0
2017-09-30T10:23:36.314Z,100.0
2017-09-30T10:24:38.103Z,100.0
2017-09-30T10:25:39.781Z,100.0
2017-09-30T10:26:41.462Z,100.0
2017-09-30T10:27:43.133Z,100.0
2017-09-30T10:28:44.830Z,100.0
2017-09-30T10:29:46.500Z,100.0
2017-09-30T10:30:48.181Z,100.0
2017-09-30T10:31:49.868Z,100.0
2017-09-30T10:32:51.536Z,100.0
2017-09-30T10:33:53.212Z,100.0
2017-09-30T10:34:54.912Z,100.0
2017-09-30T10:35:56.593Z,100.0
2017-09-30T10:36:58.268Z,100.0
2017-09-30T10:37:59.937Z,100.0
2017-09-30T10:39:01.742Z,100.0
2017-09-30T10:40:03.483Z,100.0
2017-09-30T10:41:05.230Z,100.0
2017-09-30T10:42:06.982Z,100.0
2017-09-30T10:43:08.678Z,100.0
2017-09-30T10:44:10.367Z,100.0
2017-09-30T10:45:12.096Z,100.0
2017-09-30T10:46:13.807Z,100.0
2017-09-30T10:47:15.571Z,100.0
2017-09-30T10:48:17.254Z,100.0
2017-09-30T10:49:18.944Z,100.0
2017-09-30T10:50:20.628Z,100.0
2017-09-30T10:51:22.311Z,100.0
2017-09-30T10:52:24.039Z,100.0
2017-09-30T10:53:25.698Z,100.0
2017-09-30T10:54:27.415Z,100.0
2017-09-30T10:55:29.093Z,100.0
2017-09-30T10:56:30.762Z,100.0
2017-09-30T10:57:32.448Z,100.0
2017-09-30T10:58:34.125Z,100.0
2017-09-30T10:59:35.814Z,100.0
2017-09-30T11:00:37.493Z,100.0
2017-09-30T11:01:39.159Z,100.0
2017-09-30T11:02:40.832Z,100.0
2017-09-30T11:03:42.517Z,100.0
2017-09-30T11:04:44.192Z,100.0
2017-09-30T11:05:45.860Z,100.0
2017-09-30T11:06:47.536Z,100.0
2017-09-30T11:07:49.234Z,100.0
2017-09-30T11:08:50.902Z,100.0
2017-09-30T11:09:52.570Z,100.0
2017-09-30T11:10:54.240Z,100.0
2017-09-30T11:11:55.911Z,100.0
2017-09-30T11:12:57.582Z,100.0
2017-09-30T11:13:59.273Z,100.0
2017-09-30T11:15:00.944Z,100.0
2017-09-30T11:16:02.615Z,100.0
2017-09-30T11:17:04.282Z,100.0
2017-09-30T11:18:06.020Z,100.0
2017-09-30T11:19:07.697Z,100.0
2017-09-30T11:20:09.396Z,100.0
2017-09-30T11:21:11.128Z,100.0
2017-09-30T11:22:12.806Z,100.0
2017-09-30T11:23:14.475Z,100.0
2017-09-30T11:24:16.149Z,100.0
2017-09-30T11:25:17.828Z,100.0
2017-09-30T11:26:19.490Z,100.0
2017-09-30T11:27:21.158Z,100.0
2017-09-30T11:28:22.832Z,100.0
2017-09-30T11:29:24.497Z,100.0
2017-09-30T11:30:26.180Z,100.0
2017-09-30T11:31:27.864Z,100.0
2017-09-30T11:32:29.550Z,100.0
2017-09-30T11:33:31.231Z,100.0
2017-09-30T11:34:32.917Z,100.0
2017-09-30T11:35:34.596Z,100.0
2017-09-30T11:36:36.269Z,100.0
2017-09-30T11:37:37.945Z,100.0
2017-09-30T11:38:39.634Z,100.0
2017-09-30T11:39:41.290Z,100.0
2017-09-30T11:40:42.977Z,100.0
2017-09-30T11:41:44.640Z,100.0
2017-09-30T11:42:46.311Z,100.0
2017-09-30T11:43:47.987Z,100.0
2017-09-30T11:44:49.654Z,100.0
2017-09-30T11:45:51.323Z,100.0
2017-09-30T11:46:52.991Z,100.0
2017-09-30T11:47:54.661Z,100.0
2017-09-30T11:48:56.343Z,100.0
2017-09-30T11:49:58.011Z,100.0
2017-09-30T11:50:59.685Z,100.0
2017-09-30T11:52:01.351Z,100.0
2017-09-30T11:53:03.031Z,100.0
2017-09-30T11:54:04.719Z,100.0
2017-09-30T11:55:06.390Z,100.0
2017-09-30T11:56:08.061Z,100.0
2017-09-30T11:57:09.805Z,100.0
2017-09-30T11:58:11.479Z,100.0
2017-09-30T11:59:13.174Z,100.0
2017-09-30T12:00:14.837Z,100.0
2017-09-30T12:01:17.904Z,100.0
2017-09-30T12:02:21.068Z,100.0
2017-09-30T12:03:22.755Z,100.0
2017-09-30T12:04:24.420Z,100.0
2017-09-30T12:05:26.093Z,100.0
2017-09-30T12:06:27.751Z,100.0
2017-09-30T12:07:29.428Z,100.0
2017-09-30T12:08:31.096Z,100.0
2017-09-30T12:09:32.773Z,100.0
2017-09-30T12:10:34.432Z,100.0
2017-09-30T12:11:36.100Z,100.0
2017-09-30T12:12:37.769Z,100.0
2017-09-30T12:13:39.452Z,100.0
2017-09-30T12:14:41.164Z,100.0
2017-09-30T12:15:42.813Z,100.0
2017-09-30T12:16:44.502Z,100.0
2017-09-30T12:17:46.175Z,100.0
2017-09-30T12:18:47.840Z,100.0
2017-09-30T12:19:49.518Z,100.0
2017-09-30T12:20:51.204Z,100.0
2017-09-30T12:21:52.883Z,100.0
2017-09-30T12:22:54.659Z,100.0
2017-09-30T12:23:56.341Z,100.0
2017-09-30T12:24:58.035Z,100.0
2017-09-30T12:25:59.711Z,100.0
2017-09-30T12:27:01.382Z,100.0
2017-09-30T12:28:03.106Z,100.0
2017-09-30T12:29:04.778Z,100.0
2017-09-30T12:30:06.450Z,100.0
2017-09-30T12:31:08.157Z,100.0
2017-09-30T12:32:09.804Z,100.0
2017-09-30T12:33:11.475Z,100.0
2017-09-30T12:34:13.181Z,100.0
2017-09-30T12:35:14.853Z,100.0
2017-09-30T12:36:16.536Z,100.0
2017-09-30T12:37:18.182Z,100.0
2017-09-30T12:38:19.857Z,100.0
2017-09-30T12:39:21.542Z,100.0
2017-09-30T12:40:23.222Z,100.0
2017-09-30T12:41:24.898Z,100.0
2017-09-30T12:42:26.574Z,100.0
2017-09-30T12:43:28.269Z,100.0
2017-09-30T12:44:29.946Z,100.0
2017-09-30T12:45:31.702Z,100.0
2017-09-30T12:46:33.375Z,100.0
2017-09-30T12:47:35.799Z,100.0
2017-09-30T12:48:37.474Z,100.0
2017-09-30T12:49:39.183Z,100.0
2017-09-30T12:50:40.888Z,100.0
2017-09-30T12:51:42.681Z,100.0
2017-09-30T12:52:44.364Z,100.0
2017-09-30T12:53:46.033Z,100.0
2017-09-30T12:54:47.862Z,100.0
2017-09-30T12:55:49.785Z,100.0
2017-09-30T12:56:51.534Z,100.0
2017-09-30T12:57:53.782Z,100.0
2017-09-30T12:58:55.477Z,100.0
2017-09-30T12:59:57.154Z,100.0
2017-09-30T13:00:58.839Z,100.0
2017-09-30T13:02:00.521Z,100.0
2017-09-30T13:03:03.221Z,100.0
2017-09-30T13:04:04.926Z,100.0
2017-09-30T13:05:06.614Z,100.0
2017-09-30T13:06:08.356Z,100.0
2017-09-30T13:07:10.097Z,100.0
2017-09-30T13:08:11.903Z,100.0
2017-09-30T13:09:13.750Z,100.0
2017-09-30T13:10:15.422Z,100.0
2017-09-30T13:11:17.124Z,100.0
2017-09-30T13:12:18.858Z,100.0
2017-09-30T13:13:20.635Z,100.0
2017-09-30T13:14:22.360Z,100.0
2017-09-30T13:15:24.332Z,100.0
2017-09-30T13:16:26.094Z,100.0
2017-09-30T13:17:27.874Z,100.0
2017-09-30T13:18:29.624Z,100.0
2017-09-30T13:19:31.451Z,100.0
2017-09-30T13:20:33.252Z,100.0
2017-09-30T13:21:35.056Z,100.0
2017-09-30T13:22:36.777Z,100.0
2017-09-30T13:23:38.489Z,100.0
2017-09-30T13:24:41.180Z,100.0
2017-09-30T13:25:42.957Z,100.0
2017-09-30T13:26:44.726Z,100.0
2017-09-30T13:27:46.619Z,100.0
2017-09-30T13:28:48.460Z,100.0
2017-09-30T13:29:50.239Z,100.0
2017-09-30T13:30:52.059Z,100.0
2017-09-30T13:31:53.912Z,100.0
2017-09-30T13:32:55.644Z,100.0
2017-09-30T13:33:57.436Z,100.0
2017-09-30T13:34:59.130Z,100.0
2017-09-30T13:36:00.892Z,100.0
2017-09-30T13:37:02.844Z,100.0
2017-09-30T13:38:04.677Z,100.0
2017-09-30T13:39:06.598Z,100.0
2017-09-30T13:40:08.482Z,100.0
2017-09-30T13:41:10.254Z,100.0
2017-09-30T13:42:12.067Z,99.0
2017-09-30T13:43:13.965Z,99.0
2017-09-30T13:44:15.766Z,99.6
2017-09-30T13:45:17.593Z,100.0
2017-09-30T13:46:19.362Z,99.5
2017-09-30T13:47:21.221Z,99.8
2017-09-30T13:48:22.981Z,98.8
2017-09-30T13:49:24.904Z,98.4
2017-09-30T13:50:26.707Z,97.1
2017-09-30T13:51:28.422Z,98.3